createdAt,value
2023-01-18T00:05:24.882Z,3.10
2023-01-18T00:12:07.300Z,3.00
2023-01-18T00:18:54.660Z,3.00
2023-01-18T00:25:37.041Z,3.10
2023-01-18T00:32:19.319Z,3.10
2023-01-18T00:39:02.563Z,2.90
2023-01-18T00:45:44.927Z,2.70
2023-01-18T00:52:27.868Z,2.50
2023-01-18T00:59:10.304Z,2.70
2023-01-18T01:06:11.452Z,2.50
2023-01-18T01:13:13.683Z,2.60
2023-01-18T01:20:14.829Z,2.30
2023-01-18T01:26:57.143Z,2.50
2023-01-18T01:33:40.392Z,2.60
2023-01-18T01:40:22.667Z,2.60
2023-01-18T01:47:11.564Z,2.80
2023-01-18T01:53:55.023Z,3.10
2023-01-18T02:00:37.606Z,3.30
2023-01-18T02:07:26.216Z,3.30
2023-01-18T02:14:12.904Z,3.00
2023-01-18T02:21:20.172Z,2.60
2023-01-18T02:28:17.152Z,2.70
2023-01-18T02:35:13.416Z,2.50
2023-01-18T02:42:24.404Z,2.60
2023-01-18T02:49:18.095Z,2.70
2023-01-18T02:56:14.044Z,2.60
2023-01-18T03:02:58.540Z,2.60
2023-01-18T03:09:42.581Z,2.40
2023-01-18T03:16:58.235Z,2.80
2023-01-18T03:23:42.593Z,3.00
2023-01-18T03:30:43.834Z,2.90
2023-01-18T03:37:37.790Z,2.60
2023-01-18T03:44:36.668Z,2.40
2023-01-18T03:51:34.363Z,2.30
2023-01-18T03:58:22.495Z,2.50
2023-01-18T04:05:06.269Z,2.50
2023-01-18T04:11:48.643Z,2.40
2023-01-18T04:18:30.942Z,2.30
2023-01-18T04:25:13.375Z,2.30
2023-01-18T04:31:55.859Z,2.40
2023-01-18T04:38:38.157Z,2.50
2023-01-18T04:45:20.984Z,2.40
2023-01-18T04:52:03.640Z,2.10
2023-01-18T04:58:46.034Z,1.90
2023-01-18T05:05:28.339Z,1.80
2023-01-18T05:12:10.697Z,1.80
2023-01-18T05:18:52.999Z,1.90
2023-01-18T05:25:35.291Z,1.80
2023-01-18T05:32:17.809Z,1.80
2023-01-18T05:39:00.127Z,1.80
2023-01-18T05:45:43.277Z,1.70
2023-01-18T05:52:25.716Z,1.80
2023-01-18T05:59:08.498Z,1.80
2023-01-18T06:05:51.683Z,1.70
2023-01-18T06:12:33.993Z,1.80
2023-01-18T06:19:17.702Z,1.90
2023-01-18T06:26:00.219Z,1.80
2023-01-18T06:32:42.482Z,1.70
2023-01-18T06:39:25.275Z,1.90
2023-01-18T06:46:09.565Z,1.90
2023-01-18T06:52:52.115Z,1.90
2023-01-18T06:59:34.449Z,2.00
2023-01-18T07:06:16.956Z,1.90
2023-01-18T07:12:59.797Z,1.90
2023-01-18T07:19:42.316Z,2.00
2023-01-18T07:26:25.842Z,2.00
2023-01-18T07:33:08.214Z,2.00
2023-01-18T07:39:51.704Z,2.00
2023-01-18T07:46:34.081Z,2.00
2023-01-18T07:53:16.499Z,2.00
2023-01-18T07:59:58.838Z,2.10
2023-01-18T08:06:41.178Z,2.10
2023-01-18T08:13:24.760Z,1.90
2023-01-18T08:20:09.404Z,1.70
2023-01-18T08:26:51.829Z,1.90
2023-01-18T08:33:43.163Z,1.90
2023-01-18T08:40:26.981Z,2.00
2023-01-18T08:47:10.264Z,2.00
2023-01-18T08:53:57.037Z,2.20
2023-01-18T09:00:39.452Z,2.40
2023-01-18T09:07:21.855Z,2.30
2023-01-18T09:14:04.340Z,2.40
2023-01-18T09:20:46.780Z,2.30
2023-01-18T09:27:29.045Z,2.30
2023-01-18T09:34:19.613Z,2.40
2023-01-18T09:41:05.956Z,2.60
2023-01-18T09:47:55.276Z,2.50
2023-01-18T09:54:50.346Z,2.70
2023-01-18T10:01:35.091Z,2.70
2023-01-18T10:08:24.819Z,2.60
2023-01-18T10:15:20.428Z,2.90
2023-01-18T10:22:26.370Z,3.00
2023-01-18T10:29:46.607Z,3.00
2023-01-18T10:36:39.440Z,3.10
2023-01-18T10:43:25.348Z,3.00
2023-01-18T10:50:24.524Z,3.30
2023-01-18T10:57:09.144Z,3.30
2023-01-18T11:03:54.362Z,3.40
2023-01-18T11:10:38.026Z,3.70
2023-01-18T11:17:20.309Z,4.00
2023-01-18T11:24:08.190Z,3.90
2023-01-18T11:31:07.808Z,3.60
2023-01-18T11:37:50.219Z,3.40
2023-01-18T11:44:36.494Z,3.40
2023-01-18T11:51:35.492Z,3.80
2023-01-18T11:58:29.529Z,3.80
2023-01-18T12:05:39.297Z,3.80
2023-01-18T12:12:48.512Z,3.80
2023-01-18T12:19:52.725Z,3.60
2023-01-18T12:27:00.366Z,3.90
2023-01-18T12:33:57.781Z,3.60
2023-01-18T12:40:43.096Z,3.40
2023-01-18T12:47:35.357Z,3.40
2023-01-18T12:54:31.255Z,3.70
2023-01-18T13:01:21.535Z,3.90
2023-01-18T13:08:10.207Z,4.00
2023-01-18T13:15:01.707Z,3.70
2023-01-18T13:22:19.340Z,3.80
2023-01-18T13:29:25.647Z,3.80
2023-01-18T13:36:17.327Z,3.60
2023-01-18T13:43:00.055Z,3.50
2023-01-18T13:49:46.312Z,3.40
2023-01-18T13:56:33.346Z,3.50
2023-01-18T14:03:21.529Z,3.70
2023-01-18T14:10:08.062Z,3.80
2023-01-18T14:16:59.779Z,3.90
2023-01-18T14:23:51.490Z,3.60
2023-01-18T14:30:36.497Z,3.80
2023-01-18T14:37:34.167Z,3.80
2023-01-18T14:44:24.349Z,3.50
2023-01-18T14:51:07.125Z,3.50
2023-01-18T14:57:53.517Z,3.40
2023-01-18T15:04:39.012Z,3.50
2023-01-18T15:11:24.287Z,3.50
2023-01-18T15:18:10.786Z,3.70
2023-01-18T15:24:56.279Z,3.90
2023-01-18T15:31:47.012Z,4.00
2023-01-18T15:38:29.756Z,3.90
2023-01-18T15:45:27.170Z,3.90
2023-01-18T15:52:09.782Z,3.70
2023-01-18T15:58:55.753Z,3.80
2023-01-18T16:05:38.155Z,3.60
2023-01-18T16:12:33.884Z,3.60
2023-01-18T16:19:24.566Z,3.50
2023-01-18T16:26:07.269Z,3.70
2023-01-18T16:32:49.938Z,3.80
2023-01-18T16:39:34.114Z,3.60
2023-01-18T16:46:16.942Z,3.60
2023-01-18T16:52:59.425Z,3.60
2023-01-18T16:59:41.757Z,3.60
2023-01-18T17:06:24.030Z,3.50
2023-01-18T17:13:07.064Z,3.40
2023-01-18T17:19:51.460Z,3.30
2023-01-18T17:26:34.982Z,3.20
2023-01-18T17:33:20.219Z,3.10
2023-01-18T17:40:16.506Z,3.00
2023-01-18T17:47:02.757Z,2.80
2023-01-18T17:53:45.042Z,2.60
2023-01-18T18:00:27.701Z,2.60
2023-01-18T18:07:09.993Z,2.60
2023-01-18T18:13:53.198Z,2.50
2023-01-18T18:20:38.170Z,2.40
2023-01-18T18:27:21.892Z,2.70
2023-01-18T18:34:04.240Z,2.30
2023-01-18T18:40:46.556Z,2.40
2023-01-18T18:47:28.874Z,2.50
2023-01-18T18:54:11.689Z,2.60
2023-01-18T19:00:54.019Z,2.70
2023-01-18T19:07:36.759Z,2.70
2023-01-18T19:14:19.125Z,2.80
2023-01-18T19:21:01.478Z,2.80
2023-01-18T19:27:44.654Z,2.70
2023-01-18T19:34:27.138Z,2.70
2023-01-18T19:41:09.455Z,2.60
2023-01-18T19:47:52.083Z,2.50
2023-01-18T19:54:34.439Z,2.30
2023-01-18T20:01:34.763Z,2.20
2023-01-18T20:08:18.646Z,2.10
2023-01-18T20:15:01.200Z,2.10
2023-01-18T20:21:44.879Z,2.00
2023-01-18T20:28:27.421Z,2.00
2023-01-18T20:35:10.097Z,1.90
2023-01-18T20:41:52.712Z,1.80
2023-01-18T20:48:35.957Z,1.90
2023-01-18T20:55:19.098Z,2.00
2023-01-18T21:02:02.900Z,2.10
2023-01-18T21:08:45.566Z,2.00
2023-01-18T21:15:28.102Z,2.00
2023-01-18T21:22:10.521Z,1.90
2023-01-18T21:28:53.013Z,1.80
2023-01-18T21:35:35.507Z,1.80
2023-01-18T21:42:36.432Z,1.60
2023-01-18T21:50:16.112Z,1.50
2023-01-18T21:56:39.635Z,1.40
2023-01-18T22:03:22.075Z,1.30
2023-01-18T22:10:06.786Z,1.00
2023-01-18T22:16:49.807Z,1.10
2023-01-18T22:23:32.125Z,0.90
2023-01-18T22:30:14.897Z,0.90
2023-01-18T22:36:57.181Z,0.80
2023-01-18T22:43:40.381Z,0.80
2023-01-18T22:50:22.678Z,0.80
2023-01-18T22:57:04.947Z,0.70
2023-01-18T23:03:48.510Z,0.70
2023-01-18T23:10:32.067Z,0.70
2023-01-18T23:17:33.567Z,0.50
2023-01-18T23:24:15.928Z,0.40
2023-01-18T23:30:58.323Z,0.50
2023-01-18T23:37:40.634Z,0.30
2023-01-18T23:44:41.394Z,0.30
2023-01-18T23:51:42.240Z,0.30
2023-01-18T23:58:25.019Z,0.20
